Home > Products > Valid Products > TAF

000
FTUS44 KCRP 231700 CCA
TAFLRD
TAF COR
KLRD 231749Z 2318/2418 16015KT P6SM SCT040
     FM232300 12018G25KT P6SM BKN050
     FM240400 15008KT P6SM SCT100=



000
FTUS44 KCRP 231700
TAFCRP
TAF
KCRP 231740Z 2318/2418 16008KT P6SM BKN035
     FM232000 13018G25KT P6SM SCT040
     FM240300 14010KT P6SM SCT250
     FM241100 VRB03KT P6SM VCSH SCT010
      TEMPO 2411/2413 BKN010
     FM241400 16010KT P6SM VCSH SCT025
      TEMPO 2414/2416 BKN025=



000
FTUS44 KCRP 231700
TAFALI
TAF
KALI 231740Z 2318/2418 16008KT P6SM BKN040
     FM232200 14015G22KT P6SM SCT050
     FM240300 14008KT P6SM SCT250
     FM241000 VRB03KT 5SM BR SCT010
     FM241500 16007KT P6SM VCSH SCT030
      TEMPO 2415/2417 BKN030=



000
FTUS44 KCRP 231700
TAFLRD
TAF
KLRD 231740Z 2318/2418 16014KT P6SM SKC
     FM240800 15008KT P6SM SKC=



000
FTUS44 KCRP 231700
TAFVCT
TAF
KVCT 231740Z 2318/2418 19010KT P6SM SCT040
     FM232200 16012G18KT P6SM SCT050
     FM240300 14007KT P6SM SCT250
     FM240800 VRB03KT 5SM BR SCT010
      TEMPO 2410/2413 2SM BR BKN010
     FM241500 19005KT P6SM BKN025
     FM241700 18008KT P6SM BKN035=



000
FTUS44 KCRP 231300 AAB
TAFALI
TAF AMD
KALI 231349Z 2314/2412 VRB03KT P6SM BKN003 OVC011
     FM231500 17007KT P6SM SCT015 BKN040
     FM231900 14015G22KT P6SM SCT040
     FM240300 14010KT P6SM FEW250
     FM241000 16003KT 4SM BR FEW010=



000
FTUS44 KCRP 231200 AAA
TAFALI
TAF AMD
KALI 231255Z 2313/2412 VRB03KT P6SM BKN003 OVC012
     FM231330 17005KT P6SM SCT015 BKN025
     FM231400 17008KT P6SM SCT030
     FM231900 14015G22KT P6SM FEW040
     FM240300 14010KT P6SM FEW250
     FM241000 16003KT 4SM BR FEW010=



000
FTUS44 KCRP 231100
TAFLRD
TAF
KLRD 231125Z 2312/2412 16008KT P6SM SKC
     FM231600 15012G20KT P6SM SKC
     FM240800 15008KT P6SM SKC=



000
FTUS44 KCRP 231100
TAFVCT
TAF
KVCT 231125Z 2312/2412 VRB03KT P6SM SCT020
      TEMPO 2312/2313 4SM BR FEW010
     FM231500 17008KT P6SM SCT030
     FM231900 15011G17KT P6SM SKC
     FM240300 15005KT P6SM SKC=



000
FTUS44 KCRP 231100
TAFALI
TAF
KALI 231125Z 2312/2412 16005KT 4SM BR FEW250
      TEMPO 2312/2313 2SM BR FEW010
     FM231400 17008KT P6SM SCT035
     FM231900 14015G22KT P6SM FEW040
     FM240300 14010KT P6SM FEW250
     FM241000 16003KT 4SM BR FEW010=



000
FTUS44 KCRP 231100
TAFCRP
TAF
KCRP 231125Z 2312/2412 16007KT P6SM FEW015 FEW250
     FM231500 17012KT P6SM SCT030
     FM231800 15015G22KT P6SM SCT040
     FM240300 14006KT P6SM FEW250=



000
FTUS44 KCRP 230500
TAFCRP
TAF
KCRP 230539Z 2306/2406 16005KT P6SM FEW015 FEW250
      TEMPO 2310/2312 BKN015
     FM231500 17012G18KT P6SM SCT030
     FM231800 15015G22KT P6SM SCT040
     FM240300 14008KT P6SM FEW250=



000
FTUS44 KCRP 230500
TAFVCT
TAF
KVCT 230539Z 2306/2406 15006KT P6SM SKC
     FM230800 VRB03KT 5SM BR FEW015
      TEMPO 2310/2312 1SM BR
     FM231500 17010KT P6SM SCT030
     FM231900 15011G17KT P6SM SKC
     FM240300 15005KT P6SM SKC=



000
FTUS44 KCRP 230500
TAFLRD
TAF
KLRD 230539Z 2306/2406 15015G22KT P6SM FEW250
     FM230800 16008KT P6SM FEW025
     FM231600 15012G20KT P6SM SKC=



000
FTUS44 KCRP 230500
TAFALI
TAF
KALI 230539Z 2306/2406 16005KT P6SM FEW015 FEW250
      TEMPO 2310/2312 5SM BR BKN015
     FM231400 17012G18KT P6SM SCT035
     FM231900 14015G22KT P6SM FEW040
     FM240300 14010KT P6SM FEW250=



000
FTUS44 KCRP 222300
TAFALI
TAF
KALI 222333Z 2300/2324 14015G25KT P6SM SKC
     FM230300 16012KT P6SM FEW025
     FM230700 17003KT P6SM SCT015
      TEMPO 2310/2312 BKN015
     FM231400 17012G18KT P6SM SCT035
     FM231900 14015G22KT P6SM FEW040=



000
FTUS44 KCRP 222300
TAFLRD
TAF
KLRD 222333Z 2300/2324 15015G25KT P6SM SKC
     FM230800 16008KT P6SM FEW025
     FM231600 15012G18KT P6SM SCT040=



000
FTUS44 KCRP 222300
TAFVCT
TAF
KVCT 222333Z 2300/2324 15012G18KT P6SM SCT045
     FM230300 15012KT P6SM SCT025
     FM230800 VRB03KT 5SM BR FEW015
      TEMPO 2310/2312 2SM BR
     FM231500 17012G18KT P6SM SCT030
     FM231900 15015G22KT P6SM SCT040=



000
FTUS44 KCRP 222300
TAFCRP
TAF
KCRP 222333Z 2300/2324 14012G20KT P6SM SCT035
     FM230400 15012KT P6SM FEW025
     FM230700 17003KT P6SM SCT015
      TEMPO 2310/2312 BKN015
     FM231500 17012G18KT P6SM SCT030
     FM231800 15015G22KT P6SM SCT040=



000
FTUS44 KCRP 222200 AAA
TAFVCT
TAF AMD
KVCT 222215Z 2222/2318 15012G18KT P6SM SCT045
     FM230200 15012KT P6SM SCT025
     FM230800 VRB03KT 5SM BR FEW015
      TEMPO 2310/2312 2SM BR
     FM231500 17008KT P6SM SCT030=



000
FTUS44 KCRP 222200 AAA
TAFCRP
TAF AMD
KCRP 222214Z 2222/2318 14012G20KT P6SM SCT035
     FM230300 15012KT P6SM FEW025
     FM230700 17003KT P6SM SCT015
      TEMPO 2310/2312 BKN015
     FM231500 15012G18KT P6SM BKN030
     FM231700 17012G20KT P6SM SCT035=



000
FTUS44 KCRP 221700
TAFALI
TAF
KALI 221729Z 2218/2318 14015G25KT P6SM SCT040
     FM230200 16012KT P6SM SCT025
     FM230700 17003KT P6SM SCT015
      TEMPO 2310/2312 BKN015
     FM231500 15012G18KT P6SM SCT035=



000
FTUS44 KCRP 221700
TAFCRP
TAF
KCRP 221729Z 2218/2318 17012G20KT P6SM SCT035
     FM230300 16012KT P6SM FEW025
     FM230700 17003KT P6SM SCT015
      TEMPO 2310/2312 BKN015
     FM231500 15012G18KT P6SM BKN030
     FM231700 17012G20KT P6SM SCT035=



000
FTUS44 KCRP 221700
TAFLRD
TAF
KLRD 221729Z 2218/2318 15015G25KT P6SM SKC
     FM230800 16008KT P6SM FEW025
     FM231600 15012G18KT P6SM SCT040=



000
FTUS44 KCRP 221700
TAFVCT
TAF
KVCT 221729Z 2218/2318 19012G18KT P6SM SCT045
     FM230200 16012KT P6SM SCT025
     FM230800 VRB03KT 5SM BR FEW015
      TEMPO 2310/2312 2SM BR
     FM231500 17008KT P6SM SCT030=



000
FTUS44 KCRP 221100 CCA
TAFVCT
TAF COR
KVCT 221147Z 2212/2312 19003KT P6SM FEW017
      TEMPO 2212/2214 5SM BR BKN014
     FM221500 19008KT P6SM FEW030
     FM221800 16012KT P6SM FEW040
     FM230900 VRB03KT 5SM BR FEW015=



000
FTUS44 KCRP 221100
TAFCRP
TAF
KCRP 221132Z 2212/2312 17010KT P6SM FEW015
     FM221500 17016G22KT P6SM SCT030
     FM221900 14020G27KT P6SM FEW040
     FM230300 16011KT P6SM FEW018
     FM230600 16004KT P6SM SCT015
      TEMPO 2307/2311 BKN015=



000
FTUS44 KCRP 221100
TAFALI
TAF
KALI 221132Z 2212/2312 17007KT P6SM SCT020
      TEMPO 2212/2215 BKN015
     FM221500 17014KT P6SM SCT030
     FM222100 14018G25KT P6SM FEW060
     FM230300 16008KT P6SM FEW025
     FM230700 18003KT P6SM BKN018
      TEMPO 2307/2311 SCT018=



000
FTUS44 KCRP 221100
TAFVCT
TAF
KVCT 221132Z 2212/2312 19003KT 5SM BR FEW017
      TEMPO 2212/2214 BKN014
     FM221500 19008KT P6SM FEW030
     FM221800 16012KT P6SM FEW040
     FM230900 VRB03KT 5SM BR FEW015=



000
FTUS44 KCRP 221100
TAFLRD
TAF
KLRD 221132Z 2212/2312 15012KT P6SM FEW025
     FM221500 16017KT P6SM FEW030
     FM230000 14019G25KT P6SM FEW090
     FM230800 16008KT P6SM FEW025=



000
FTUS44 KCRP 220700 AAA
TAFLRD
TAF AMD
KLRD 220720Z 2207/2306 15013G19KT P6SM FEW250
     FM221500 16017KT P6SM FEW030
     FM230000 14019G25KT P6SM FEW090=



000
FTUS44 KCRP 220500
TAFLRD
TAF
KLRD 220531Z 2206/2306 15012KT P6SM FEW250 WS020/17040KT
     FM221500 16017KT P6SM FEW030
     FM230000 14019G25KT P6SM FEW090=



000
FTUS44 KCRP 220500
TAFVCT
TAF
KVCT 220531Z 2206/2306 16009KT P6SM FEW020
      TEMPO 2206/2210 5SM BR BKN018
     FM221000 18005KT 5SM BR FEW015
      TEMPO 2210/2214 4SM BR BKN014
     FM221400 18008KT P6SM SCT025
     FM221800 16012KT P6SM FEW040=



000
FTUS44 KCRP 220500
TAFALI
TAF
KALI 220531Z 2206/2306 16010KT P6SM SCT015 SCT024
      TEMPO 2206/2210 BKN015
     FM221000 17005KT 6SM BR SCT015
      TEMPO 2210/2214 5SM BR BKN015
     FM221500 17014G20KT P6SM FEW025
     FM222100 14018G25KT P6SM FEW060
     FM230400 16008KT P6SM SKC=



000
FTUS44 KCRP 220500
TAFCRP
TAF
KCRP 220531Z 2206/2306 16010KT P6SM FEW015
      TEMPO 2206/2210 BKN015
     FM221400 17016G22KT P6SM SCT025
     FM221900 14020G27KT P6SM FEW040
     FM230400 16011KT P6SM FEW018=



000
FTUS44 KCRP 220300 AAA
TAFALI
TAF AMD
KALI 220332Z 2204/2224 15014G22KT P6SM SKC
     FM220500 15010KT P6SM SCT015
      TEMPO 2209/2213 BKN015
     FM221400 17014G20KT P6SM SCT025
     FM222100 14018G25KT P6SM FEW050=



000
FTUS44 KCRP 212300
TAFVCT
TAF
KVCT 212338Z 2200/2224 16018G26KT P6SM SCT030
     FM220100 16013KT P6SM FEW020
     FM220700 15006KT P6SM SCT015
     FM220900 18005KT 5SM BR BKN015
     FM221400 18014KT P6SM SCT025
     FM222100 16015G20KT P6SM FEW040=



000
FTUS44 KCRP 212300
TAFLRD
TAF
KLRD 212338Z 2200/2224 15019G28KT P6SM FEW090
     FM220800 15013KT P6SM FEW020
     FM221400 16016G22KT P6SM SCT020
     FM222300 14018G25KT P6SM FEW090=



000
FTUS44 KCRP 212300
TAFCRP
TAF
KCRP 212338Z 2200/2224 14022G30KT P6SM FEW040
     FM220200 15015G22KT P6SM FEW018
     FM220600 16010KT P6SM SCT015
      TEMPO 2210/2213 BKN015
     FM221400 17016G22KT P6SM SCT025
     FM222000 14018G25KT P6SM FEW040=



000
FTUS44 KCRP 212300
TAFALI
TAF
KALI 212338Z 2200/2224 14021G29KT P6SM SKC
     FM220200 15014G22KT P6SM SKC
     FM220400 15010KT P6SM SCT015
      TEMPO 2209/2213 BKN015
     FM221400 17014G20KT P6SM SCT025
     FM222100 14018G25KT P6SM FEW050=



000
FTUS44 KCRP 211700
TAFVCT
TAF
KVCT 211731Z 2118/2218 17018G26KT P6SM SCT040
     FM220100 16013KT P6SM FEW020
     FM220700 15006KT P6SM SCT015
      TEMPO 2209/2213 5SM BR BKN015
     FM221400 17012KT P6SM SCT035=



000
FTUS44 KCRP 211700
TAFCRP
TAF
KCRP 211731Z 2118/2218 17020G28KT P6SM SCT040
     FM211900 14022G30KT P6SM FEW040
     FM220100 15015G22KT P6SM FEW018
     FM220600 16010KT P6SM SCT015
      TEMPO 2209/2213 BKN015
     FM221400 17016G22KT P6SM SCT030=



000
FTUS44 KCRP 211700
TAFLRD
TAF
KLRD 211731Z 2118/2218 16018G26KT P6SM SKC
     FM220100 14019G28KT P6SM SKC
     FM220800 15013KT P6SM FEW020
     FM221400 16016G22KT P6SM SKC=



000
FTUS44 KCRP 211700
TAFALI
TAF
KALI 211731Z 2118/2218 17019G27KT P6SM FEW050
     FM212000 14021G29KT P6SM SKC
     FM220100 15014G22KT P6SM SKC
     FM220400 15010KT P6SM SCT015
      TEMPO 2209/2213 BKN015
     FM221400 17014G20KT P6SM SCT035=



000
FTUS44 KCRP 211400 AAA
TAFALI
TAF AMD
KALI 211425Z 2114/2212 16014G21KT P6SM BKN022
     FM211530 17016G23KT P6SM SCT035
     FM212000 14021G28KT P6SM FEW050
     FM220400 15008KT P6SM FEW020
      TEMPO 2208/2212 BKN020=



000
FTUS44 KCRP 211400 AAA
TAFCRP
TAF AMD
KCRP 211424Z 2114/2212 17016G22KT P6SM BKN025
     FM211530 17018G25KT P6SM SCT035
     FM211900 14022G30KT P6SM FEW040
     FM220400 15010KT P6SM FEW018=



000
FTUS44 KCRP 211100
TAFVCT
TAF
KVCT 211136Z 2112/2212 18008KT P6SM FEW025
     FM211500 18015KT P6SM SCT035
     FM211900 16018G25KT P6SM FEW045
     FM220300 15010KT P6SM FEW015
      TEMPO 2209/2212 5SM BR=



000
FTUS44 KCRP 211100
TAFLRD
TAF
KLRD 211136Z 2112/2212 14017KT P6SM FEW030
     FM220100 14019G25KT P6SM SKC
     FM220800 16013KT P6SM SKC=



000
FTUS44 KCRP 211100
TAFALI
TAF
KALI 211136Z 2112/2212 16011KT P6SM FEW025 WS020/16035KT
      TEMPO 2112/2114 BKN021
     FM211500 17016G23KT P6SM FEW035
     FM212000 14021G28KT P6SM FEW050
     FM220400 15008KT P6SM FEW020
      TEMPO 2208/2212 BKN020=



000
FTUS44 KCRP 211100
TAFCRP
TAF
KCRP 211136Z 2112/2212 17010KT P6SM FEW020 WS020/16035KT
     FM211500 17018G25KT P6SM FEW035
     FM211900 14022G30KT P6SM FEW040
     FM220400 15010KT P6SM FEW018=



000
FTUS44 KCRP 210500
TAFLRD
TAF
KLRD 210537Z 2106/2206 14015KT P6SM SCT030 SCT250 WS020/17040KT
      TEMPO 2111/2114 BKN015
     FM211500 16017KT P6SM FEW060
     FM220100 14018G25KT P6SM FEW040=



000
FTUS44 KCRP 210500
TAFALI
TAF
KALI 210537Z 2106/2206 15014KT P6SM BKN021 WS020/16040KT
      TEMPO 2110/2114 SCT015
     FM211500 17016G23KT P6SM SCT035
     FM212000 14021G28KT P6SM FEW060
     FM220300 15012KT P6SM SKC=



000
FTUS44 KCRP 210500
TAFVCT
TAF
KVCT 210537Z 2106/2206 16007KT P6SM FEW025 WS020/16035KT
      TEMPO 2108/2112 BKN015
     FM211500 18015KT P6SM SCT035
     FM211900 16018G25KT P6SM FEW045
     FM220300 15010KT P6SM SKC=



000
FTUS44 KCRP 210500
TAFCRP
TAF
KCRP 210537Z 2106/2206 15017KT P6SM BKN015 BKN250
      TEMPO 2106/2109 SCT015
     FM210900 16010KT P6SM SCT015 WS020/16035KT
      TEMPO 2109/2113 BKN015
     FM211500 17018G25KT P6SM SCT035
     FM211900 14022G30KT P6SM FEW035
     FM220300 15014KT P6SM FEW018=



000
FTUS44 KCRP 202300
TAFLRD
TAF
KLRD 202337Z 2100/2124 15015KT P6SM SCT070
     FM210100 14015G25KT P6SM SKC
     FM210700 14013KT P6SM SCT015
      TEMPO 2111/2114 BKN015
     FM211500 16015KT P6SM SCT040
     FM212300 15018G25KT P6SM SCT050=



000
FTUS44 KCRP 202300
TAFVCT
TAF
KVCT 202337Z 2100/2124 15018G25KT P6SM SCT050 SCT250
     FM210100 16010KT P6SM FEW025
     FM210900 15006KT P6SM SCT015
      TEMPO 2110/2114 BKN015
     FM211500 17015KT P6SM SCT035
     FM211900 16018G25KT P6SM SCT045=



000
FTUS44 KCRP 202300
TAFCRP
TAF
KCRP 202337Z 2100/2124 14020G30KT P6SM SCT045 SCT200
     FM210200 15015KT P6SM FEW018 SCT200
     FM210900 16010KT P6SM SCT015
     FM211500 17018G25KT P6SM SCT035
     FM211800 14020G30KT P6SM SCT045=



000
FTUS44 KCRP 202300
TAFALI
TAF
KALI 202337Z 2100/2124 14018G28KT P6SM SCT060
     FM210300 14012KT P6SM FEW025
     FM211000 15007KT P6SM BKN015
     FM211500 17018G25KT P6SM SCT035
     FM211900 15020G28KT P6SM SCT045=



    US Dept of Commerce
    National Oceanic and Atmospheric Administration
    National Weather Service
    1325 East West Highway
    Silver Spring, MD 20910
    Page Author: NWS Internet Services Team
Disclaimer
Information Quality
Credits
Glossary
Privacy Policy
Freedom of Information Act (FOIA)
About Us
Career Opportunities